createdAt,value
2018-08-02T00:00:59.341Z,68.20
2018-08-02T00:03:28.441Z,68.80
2018-08-02T00:08:25.462Z,67.70
2018-08-02T00:10:53.999Z,66.90
2018-08-02T00:13:22.588Z,67.10
2018-08-02T00:18:19.790Z,69.00
2018-08-02T00:20:48.715Z,69.50
2018-08-02T00:23:17.676Z,69.80
2018-08-02T00:25:46.668Z,69.80
2018-08-02T00:28:15.987Z,70.20
2018-08-02T00:30:44.609Z,70.30
2018-08-02T00:35:41.536Z,69.70
2018-08-02T00:38:10.872Z,70.00
2018-08-02T00:40:39.674Z,69.10
2018-08-02T00:43:09.077Z,69.10
2018-08-02T00:45:37.716Z,69.20
2018-08-02T00:48:06.558Z,69.30
2018-08-02T00:50:35.523Z,69.70
2018-08-02T00:53:04.072Z,69.20
2018-08-02T00:55:33.600Z,69.70
2018-08-02T00:58:02.402Z,69.70
2018-08-02T01:00:31.076Z,69.60
2018-08-02T01:03:00.360Z,70.50
2018-08-02T01:05:29.206Z,70.10
2018-08-02T01:07:57.928Z,69.60
2018-08-02T01:10:26.938Z,69.60
2018-08-02T01:12:55.531Z,69.50
2018-08-02T01:15:24.080Z,69.90
2018-08-02T01:17:52.991Z,70.10
2018-08-02T01:20:21.592Z,70.40
2018-08-02T01:22:50.183Z,69.70
2018-08-02T01:25:18.762Z,70.50
2018-08-02T01:27:47.438Z,69.40
2018-08-02T01:30:16.171Z,70.30
2018-08-02T01:32:44.813Z,69.20
2018-08-02T01:35:13.437Z,69.80
2018-08-02T01:37:42.783Z,69.90
2018-08-02T01:40:11.483Z,70.20
2018-08-02T01:42:40.104Z,70.30
2018-08-02T01:45:09.558Z,70.20
2018-08-02T01:47:38.141Z,69.60
2018-08-02T01:50:06.923Z,69.50
2018-08-02T01:52:35.483Z,69.70
2018-08-02T01:55:04.198Z,69.10
2018-08-02T01:57:33.367Z,68.70
2018-08-02T02:00:02.508Z,69.00
2018-08-02T02:02:31.136Z,68.80
2018-08-02T02:04:59.736Z,69.40
2018-08-02T02:07:28.288Z,69.10
2018-08-02T02:12:26.631Z,69.20
2018-08-02T02:14:56.597Z,69.20
2018-08-02T02:17:25.162Z,68.80
2018-08-02T02:19:53.827Z,68.90
2018-08-02T02:22:22.622Z,68.60
2018-08-02T02:24:51.225Z,68.50
2018-08-02T02:27:20.288Z,68.60
2018-08-02T02:29:48.867Z,68.00
2018-08-02T02:32:17.761Z,69.00
2018-08-02T02:34:46.656Z,69.70
2018-08-02T02:37:15.216Z,69.60
2018-08-02T02:39:44.967Z,69.40
2018-08-02T02:42:13.693Z,69.20
2018-08-02T02:44:42.333Z,68.90
2018-08-02T02:47:11.314Z,68.70
2018-08-02T02:49:40.485Z,68.10
2018-08-02T02:52:09.234Z,68.00
2018-08-02T02:54:38.345Z,67.70
2018-08-02T02:57:07.037Z,67.80
2018-08-02T02:59:35.601Z,68.10
2018-08-02T03:02:04.168Z,68.60
2018-08-02T03:04:33.039Z,68.60
2018-08-02T03:07:02.117Z,68.80
2018-08-02T03:09:31.025Z,69.10
2018-08-02T03:11:59.633Z,68.30
2018-08-02T03:16:56.972Z,68.10
2018-08-02T03:19:26.173Z,68.00
2018-08-02T03:21:54.756Z,66.70
2018-08-02T03:24:23.567Z,66.90
2018-08-02T03:26:52.142Z,67.50
2018-08-02T03:29:20.788Z,67.20
2018-08-02T03:34:17.537Z,68.00
2018-08-02T03:36:46.101Z,67.60
2018-08-02T03:39:15.044Z,67.50
2018-08-02T03:41:43.659Z,68.20
2018-08-02T03:44:12.347Z,67.70
2018-08-02T03:46:41.224Z,67.50
2018-08-02T03:49:09.713Z,67.40
2018-08-02T03:51:38.967Z,67.70
2018-08-02T03:56:36.522Z,68.60
2018-08-02T03:59:05.217Z,68.10
2018-08-02T04:01:34.349Z,67.80
2018-08-02T04:04:02.916Z,67.20
2018-08-02T04:06:31.778Z,67.30
2018-08-02T04:09:01.389Z,67.80
2018-08-02T04:11:30.444Z,68.10
2018-08-02T04:13:59.347Z,68.00
2018-08-02T04:16:28.524Z,67.90
2018-08-02T04:18:57.553Z,68.00
2018-08-02T04:21:26.942Z,68.10
2018-08-02T04:23:55.620Z,68.30
2018-08-02T04:26:24.927Z,67.90
2018-08-02T04:28:53.838Z,67.80
2018-08-02T04:31:22.500Z,68.00
2018-08-02T04:33:51.111Z,67.60
2018-08-02T04:36:19.999Z,67.50
2018-08-02T04:38:48.641Z,67.40
2018-08-02T04:41:17.619Z,67.10
2018-08-02T04:43:46.230Z,67.40
2018-08-02T04:46:15.133Z,68.40
2018-08-02T04:48:43.690Z,68.20
2018-08-02T04:51:12.582Z,67.80
2018-08-02T04:53:41.128Z,68.50
2018-08-02T04:56:09.928Z,68.00
2018-08-02T04:58:38.451Z,67.90
2018-08-02T05:01:07.078Z,68.10
2018-08-02T05:03:35.617Z,68.10
2018-08-02T05:06:04.288Z,68.00
2018-08-02T05:08:33.390Z,68.10
2018-08-02T05:11:02.364Z,68.00
2018-08-02T05:13:31.425Z,67.70
2018-08-02T05:15:59.939Z,68.00
2018-08-02T05:18:28.504Z,67.80
2018-08-02T05:20:57.076Z,67.40
2018-08-02T05:23:25.724Z,67.80
2018-08-02T05:25:54.308Z,67.50
2018-08-02T05:28:22.874Z,67.40
2018-08-02T05:30:51.804Z,67.00
2018-08-02T05:33:21.563Z,67.30
2018-08-02T05:35:50.612Z,67.60
2018-08-02T05:38:19.446Z,66.30
2018-08-02T05:40:48.744Z,68.40
2018-08-02T05:43:17.709Z,68.20
2018-08-02T05:45:46.292Z,68.20
2018-08-02T05:48:15.225Z,67.90
2018-08-02T05:50:43.837Z,68.00
2018-08-02T05:53:13.063Z,67.50
2018-08-02T05:55:41.875Z,67.30
2018-08-02T06:03:07.859Z,66.70
2018-08-02T06:05:36.717Z,66.80
2018-08-02T06:08:05.858Z,67.30
2018-08-02T06:10:34.747Z,67.70
2018-08-02T06:13:03.679Z,67.50
2018-08-02T06:15:32.623Z,67.20
2018-08-02T06:18:01.393Z,66.90
2018-08-02T06:20:31.408Z,66.70
2018-08-02T06:23:00.235Z,66.90
2018-08-02T06:25:28.909Z,66.70
2018-08-02T06:27:57.496Z,67.00
2018-08-02T06:30:26.291Z,67.10
2018-08-02T06:32:55.249Z,66.90
2018-08-02T06:35:24.313Z,66.70
2018-08-02T06:37:53.835Z,66.80
2018-08-02T06:45:20.283Z,66.80
2018-08-02T06:47:47.911Z,66.90
2018-08-02T06:50:16.825Z,67.00
2018-08-02T06:52:47.236Z,67.30
2018-08-02T06:55:16.113Z,67.70
2018-08-02T06:57:44.959Z,67.80
2018-08-02T07:00:15.747Z,67.90
2018-08-02T07:02:44.586Z,67.20
2018-08-02T07:05:13.457Z,66.80
2018-08-02T07:07:42.169Z,66.60
2018-08-02T07:10:11.827Z,66.70
2018-08-02T07:12:41.537Z,66.90
2018-08-02T07:15:10.954Z,66.80
2018-08-02T07:17:40.339Z,66.80
2018-08-02T07:20:10.291Z,66.60
2018-08-02T07:22:39.182Z,66.70
2018-08-02T07:25:08.865Z,66.80
2018-08-02T07:27:38.656Z,67.00
2018-08-02T07:30:08.067Z,67.10
2018-08-02T07:32:37.535Z,66.90
2018-08-02T07:35:06.263Z,66.50
2018-08-02T07:37:35.276Z,66.80
2018-08-02T07:40:04.939Z,66.60
2018-08-02T07:42:34.015Z,65.90
2018-08-02T07:45:04.279Z,65.90
2018-08-02T07:47:33.647Z,66.30
2018-08-02T07:52:30.966Z,65.80
2018-08-02T07:55:00.007Z,65.70
2018-08-02T07:57:29.551Z,65.50
2018-08-02T07:59:59.917Z,65.50
2018-08-02T08:02:30.113Z,66.00
2018-08-02T08:05:00.343Z,66.10
2018-08-02T08:07:29.939Z,66.00
2018-08-02T08:09:59.512Z,65.90
2018-08-02T08:12:30.319Z,65.80
2018-08-02T08:17:28.884Z,64.90
2018-08-02T08:19:58.088Z,64.20
2018-08-02T08:22:28.209Z,64.10
2018-08-02T08:24:58.079Z,64.80
2018-08-02T08:29:59.806Z,63.30
2018-08-02T08:32:32.839Z,63.50
2018-08-02T08:35:01.980Z,62.80
2018-08-02T08:37:31.365Z,63.00
2018-08-02T08:40:07.517Z,62.60
2018-08-02T08:42:37.259Z,62.70
2018-08-02T08:45:07.102Z,62.10
2018-08-02T08:47:36.172Z,62.20
2018-08-02T08:50:05.377Z,61.90
2018-08-02T08:52:34.176Z,60.30
2018-08-02T08:55:03.131Z,60.90
2018-08-02T08:57:32.068Z,60.00
2018-08-02T09:00:00.679Z,59.80
2018-08-02T09:02:29.986Z,60.30
2018-08-02T09:04:59.063Z,60.40
2018-08-02T09:07:28.412Z,60.70
2018-08-02T09:09:57.163Z,61.40
2018-08-02T09:12:28.059Z,60.40
2018-08-02T09:14:57.340Z,60.20
2018-08-02T09:17:25.990Z,60.10
2018-08-02T09:19:55.180Z,59.70
2018-08-02T09:22:24.631Z,59.50
2018-08-02T09:24:53.624Z,59.60
2018-08-02T09:27:22.285Z,59.50
2018-08-02T09:29:51.903Z,60.00
2018-08-02T09:32:20.911Z,60.00
2018-08-02T09:34:49.921Z,59.70
2018-08-02T09:37:18.811Z,59.20
2018-08-02T09:42:16.434Z,58.60
2018-08-02T09:44:45.969Z,58.70
2018-08-02T09:47:14.670Z,58.60
2018-08-02T09:49:43.788Z,58.60
2018-08-02T09:52:12.807Z,58.40
2018-08-02T09:54:41.539Z,58.20
2018-08-02T09:57:10.636Z,58.70
2018-08-02T09:59:39.240Z,58.60
2018-08-02T10:04:39.917Z,58.90
2018-08-02T10:07:09.642Z,59.10
2018-08-02T10:09:38.422Z,59.20
2018-08-02T10:12:08.452Z,59.20
2018-08-02T10:14:37.476Z,59.50
2018-08-02T10:17:07.570Z,59.40
2018-08-02T10:19:37.208Z,59.00
2018-08-02T10:22:06.109Z,58.90
2018-08-02T10:24:35.013Z,58.90
2018-08-02T10:27:03.676Z,59.20
2018-08-02T10:29:32.757Z,59.50
2018-08-02T10:32:02.593Z,59.40
2018-08-02T10:34:31.380Z,58.80
2018-08-02T10:37:00.250Z,59.00
2018-08-02T10:39:28.936Z,59.50
2018-08-02T10:41:59.654Z,59.60
2018-08-02T10:44:28.772Z,59.50
2018-08-02T10:46:57.657Z,59.40
2018-08-02T10:49:26.840Z,59.40
2018-08-02T10:51:55.464Z,59.90
2018-08-02T10:54:24.938Z,59.90
2018-08-02T10:56:54.311Z,59.90
2018-08-02T11:01:51.373Z,59.40
2018-08-02T11:06:48.287Z,59.50
2018-08-02T11:09:17.164Z,59.50
2018-08-02T11:11:45.904Z,59.60
2018-08-02T11:14:14.469Z,59.30
2018-08-02T11:16:43.820Z,59.20
2018-08-02T11:19:13.405Z,59.00
2018-08-02T11:21:42.060Z,59.20
2018-08-02T11:24:10.932Z,59.20
2018-08-02T11:26:42.008Z,59.10
2018-08-02T11:29:11.261Z,59.20
2018-08-02T11:31:40.106Z,59.10
2018-08-02T11:34:08.811Z,58.80
2018-08-02T11:36:37.655Z,58.70
2018-08-02T11:39:08.743Z,58.50
2018-08-02T11:44:06.150Z,59.30
2018-08-02T11:46:34.849Z,59.30
2018-08-02T11:49:04.036Z,58.90
2018-08-02T11:51:32.763Z,59.00
2018-08-02T11:56:30.704Z,58.90
2018-08-02T11:59:00.112Z,59.30
2018-08-02T12:01:28.692Z,59.70
2018-08-02T12:03:57.604Z,59.20
2018-08-02T12:06:26.368Z,59.20
2018-08-02T12:08:55.361Z,59.20
2018-08-02T12:11:24.474Z,59.20
2018-08-02T12:13:53.144Z,59.20
2018-08-02T12:16:22.142Z,59.50
2018-08-02T12:18:51.152Z,59.20
2018-08-02T12:21:20.010Z,59.10
2018-08-02T12:23:49.124Z,58.90
2018-08-02T12:26:17.651Z,58.70
2018-08-02T12:28:46.491Z,58.70
2018-08-02T12:31:15.665Z,59.20
2018-08-02T12:33:45.092Z,58.40
2018-08-02T12:36:13.914Z,58.30
2018-08-02T12:38:42.660Z,58.20
2018-08-02T12:41:11.264Z,58.00
2018-08-02T12:43:40.395Z,57.70
2018-08-02T12:46:09.475Z,57.60
2018-08-02T12:48:38.555Z,57.80
2018-08-02T12:51:07.849Z,57.70
2018-08-02T12:53:37.348Z,57.70
2018-08-02T12:56:06.681Z,57.80
2018-08-02T12:58:35.660Z,56.90
2018-08-02T13:01:04.311Z,56.70
2018-08-02T13:03:33.418Z,56.20
2018-08-02T13:06:02.196Z,55.80
2018-08-02T13:08:31.028Z,55.60
2018-08-02T13:10:59.689Z,55.50
2018-08-02T13:13:28.184Z,55.10
2018-08-02T13:15:57.636Z,54.90
2018-08-02T13:18:26.302Z,54.50
2018-08-02T13:23:23.651Z,54.30
2018-08-02T13:25:53.038Z,54.90
2018-08-02T13:28:23.171Z,55.00
2018-08-02T13:30:52.373Z,55.10
2018-08-02T13:33:21.529Z,55.30
2018-08-02T13:35:51.550Z,55.40
2018-08-02T13:38:20.188Z,55.40
2018-08-02T13:40:49.188Z,55.30
2018-08-02T13:43:17.748Z,55.40
2018-08-02T13:45:47.349Z,55.00
2018-08-02T13:48:16.495Z,55.10
2018-08-02T13:50:45.243Z,55.30
2018-08-02T13:53:15.215Z,55.20
2018-08-02T13:58:13.653Z,54.90
2018-08-02T14:00:42.355Z,54.90
2018-08-02T14:03:11.318Z,55.10
2018-08-02T14:05:40.224Z,55.10
2018-08-02T14:08:10.672Z,55.00
2018-08-02T14:10:40.656Z,55.00
2018-08-02T14:13:09.303Z,55.10
2018-08-02T14:15:38.113Z,54.70
2018-08-02T14:18:07.111Z,54.50
2018-08-02T14:20:35.764Z,54.50
2018-08-02T14:23:04.395Z,54.60
2018-08-02T14:25:33.607Z,54.40
2018-08-02T14:28:02.708Z,54.50
2018-08-02T14:30:32.097Z,54.50
2018-08-02T14:33:01.101Z,54.50
2018-08-02T14:35:30.273Z,54.60
2018-08-02T14:37:59.224Z,54.60
2018-08-02T14:40:29.375Z,54.90
2018-08-02T14:42:58.640Z,54.80
2018-08-02T14:45:27.497Z,54.40
2018-08-02T14:47:57.725Z,54.40
2018-08-02T14:50:26.726Z,54.60
2018-08-02T14:52:55.255Z,54.60
2018-08-02T14:55:24.468Z,54.50
2018-08-02T14:57:53.774Z,54.80
2018-08-02T15:00:23.150Z,54.30
2018-08-02T15:02:51.995Z,54.50
2018-08-02T15:05:20.886Z,54.40
2018-08-02T15:07:49.573Z,54.30
2018-08-02T15:10:18.701Z,54.30
2018-08-02T15:15:15.637Z,54.30
2018-08-02T15:17:44.371Z,53.80
2018-08-02T15:20:13.104Z,53.80
2018-08-02T15:22:41.791Z,54.00
2018-08-02T15:25:12.731Z,53.90
2018-08-02T15:27:42.066Z,54.00
2018-08-02T15:30:10.640Z,53.40
2018-08-02T15:35:08.522Z,53.90
2018-08-02T15:37:37.908Z,53.80
2018-08-02T15:40:07.379Z,54.00
2018-08-02T15:42:36.885Z,54.10
2018-08-02T15:45:05.998Z,54.00
2018-08-02T15:47:34.691Z,53.50
2018-08-02T15:50:05.049Z,53.60
2018-08-02T15:55:02.376Z,53.50
2018-08-02T15:57:30.946Z,52.50
2018-08-02T15:59:59.573Z,51.90
2018-08-02T16:02:28.333Z,52.40
2018-08-02T16:04:57.310Z,52.20
2018-08-02T16:07:25.978Z,52.20
2018-08-02T16:09:55.344Z,52.50
2018-08-02T16:12:25.530Z,52.50
2018-08-02T16:14:54.082Z,52.30
2018-08-02T16:17:23.846Z,51.90
2018-08-02T16:19:52.708Z,51.70
2018-08-02T16:22:21.464Z,51.70
2018-08-02T16:24:50.417Z,51.00
2018-08-02T16:27:19.174Z,51.40
2018-08-02T16:29:48.304Z,51.10
2018-08-02T16:32:16.941Z,51.30
2018-08-02T16:34:45.774Z,51.80
2018-08-02T16:37:14.618Z,51.90
2018-08-02T16:39:43.365Z,52.00
2018-08-02T16:42:12.812Z,51.70
2018-08-02T16:44:42.134Z,52.30
2018-08-02T16:47:10.904Z,51.60
2018-08-02T16:49:40.005Z,51.00
2018-08-02T16:52:09.353Z,51.40
2018-08-02T16:54:37.957Z,51.90
2018-08-02T16:59:35.637Z,52.00
2018-08-02T17:02:04.354Z,52.10
2018-08-02T17:04:32.945Z,52.60
2018-08-02T17:07:01.940Z,52.50
2018-08-02T17:09:30.797Z,52.30
2018-08-02T17:11:59.499Z,52.90
2018-08-02T17:14:29.498Z,52.90
2018-08-02T17:16:58.163Z,52.90
2018-08-02T17:19:28.129Z,53.30
2018-08-02T17:21:57.097Z,53.40
2018-08-02T17:24:25.820Z,53.80
2018-08-02T17:26:54.485Z,53.00
2018-08-02T17:29:23.551Z,53.30
2018-08-02T17:31:52.507Z,53.40
2018-08-02T17:34:21.402Z,53.90
2018-08-02T17:36:49.981Z,53.70
2018-08-02T17:39:18.956Z,54.00
2018-08-02T17:41:48.227Z,53.80
2018-08-02T17:44:17.335Z,53.80
2018-08-02T17:46:45.982Z,54.00
2018-08-02T17:49:15.176Z,54.30
2018-08-02T17:51:44.600Z,54.50
2018-08-02T17:54:14.276Z,54.70
2018-08-02T17:56:43.003Z,54.60
2018-08-02T17:59:12.491Z,54.70
2018-08-02T18:01:42.361Z,55.00
2018-08-02T18:04:11.367Z,55.10
2018-08-02T18:06:40.606Z,55.10
2018-08-02T18:09:11.617Z,55.10
2018-08-02T18:11:42.640Z,55.10
2018-08-02T18:14:13.149Z,55.30
2018-08-02T18:16:43.422Z,55.40
2018-08-02T18:19:14.228Z,55.40
2018-08-02T18:21:43.566Z,55.30
2018-08-02T18:24:14.569Z,55.10
2018-08-02T18:26:43.514Z,55.30
2018-08-02T18:29:12.316Z,54.90
2018-08-02T18:31:41.076Z,54.80
2018-08-02T18:34:10.464Z,54.80
2018-08-02T18:36:39.615Z,55.00
2018-08-02T18:39:09.315Z,55.00
2018-08-02T18:41:39.171Z,55.20
2018-08-02T18:44:08.585Z,55.60
2018-08-02T18:46:38.417Z,55.60
2018-08-02T18:49:08.605Z,55.80
2018-08-02T18:51:39.131Z,55.50
2018-08-02T18:54:08.097Z,55.50
2018-08-02T18:56:38.587Z,55.70
2018-08-02T18:59:07.764Z,55.80
2018-08-02T19:01:37.709Z,55.70
2018-08-02T19:04:06.562Z,55.80
2018-08-02T19:06:37.021Z,55.80
2018-08-02T19:09:08.506Z,56.00
2018-08-02T19:11:37.534Z,56.20
2018-08-02T19:14:07.143Z,56.30
2018-08-02T19:16:36.668Z,56.40
2018-08-02T19:19:05.827Z,56.40
2018-08-02T19:21:35.312Z,56.30
2018-08-02T19:24:04.730Z,56.50
2018-08-02T19:26:34.177Z,56.70
2018-08-02T19:29:02.957Z,56.90
2018-08-02T19:31:32.159Z,56.90
2018-08-02T19:34:01.210Z,57.20
2018-08-02T19:36:30.135Z,57.30
2018-08-02T19:38:59.129Z,57.30
2018-08-02T19:41:28.321Z,57.30
2018-08-02T19:43:57.427Z,57.30
2018-08-02T19:46:26.195Z,57.50
2018-08-02T19:48:54.958Z,57.60
2018-08-02T19:51:23.708Z,57.60
2018-08-02T19:53:53.787Z,57.70
2018-08-02T19:56:23.138Z,57.70
2018-08-02T19:58:52.409Z,57.80
2018-08-02T20:01:21.456Z,57.80
2018-08-02T20:03:50.922Z,57.80
2018-08-02T20:06:20.010Z,57.80
2018-08-02T20:08:49.214Z,57.90
2018-08-02T20:11:18.776Z,58.10
2018-08-02T20:13:47.783Z,58.10
2018-08-02T20:16:17.245Z,58.20
2018-08-02T20:18:45.980Z,58.10
2018-08-02T20:21:14.871Z,58.00
2018-08-02T20:23:44.693Z,58.20
2018-08-02T20:26:13.598Z,58.40
2018-08-02T20:28:43.787Z,58.40
2018-08-02T20:31:12.997Z,58.50
2018-08-02T20:33:42.246Z,58.70
2018-08-02T20:36:11.293Z,58.90
2018-08-02T20:38:40.591Z,59.00
2018-08-02T20:41:09.355Z,59.00
2018-08-02T20:43:38.777Z,59.20
2018-08-02T20:46:08.116Z,59.20
2018-08-02T20:48:37.007Z,59.20
2018-08-02T20:51:06.001Z,59.40
2018-08-02T20:53:35.132Z,59.70
2018-08-02T20:56:04.722Z,59.90
2018-08-02T21:01:01.835Z,60.20
2018-08-02T21:03:31.009Z,60.30
2018-08-02T21:06:00.742Z,60.40
2018-08-02T21:08:29.779Z,60.40
2018-08-02T21:10:58.590Z,60.50
2018-08-02T21:13:27.789Z,60.60
2018-08-02T21:15:56.866Z,60.70
2018-08-02T21:18:26.890Z,60.80
2018-08-02T21:23:23.861Z,61.70
2018-08-02T21:25:52.999Z,62.00
2018-08-02T21:28:21.637Z,62.20
2018-08-02T21:30:50.882Z,62.20
2018-08-02T21:33:19.979Z,62.20
2018-08-02T21:35:49.022Z,62.20
2018-08-02T21:38:18.028Z,62.10
2018-08-02T21:40:47.152Z,62.20
2018-08-02T21:43:16.261Z,62.30
2018-08-02T21:45:44.909Z,62.50
2018-08-02T21:50:42.809Z,62.80
2018-08-02T21:53:11.827Z,63.10
2018-08-02T21:55:40.869Z,63.10
2018-08-02T21:58:10.172Z,63.10
2018-08-02T22:00:40.203Z,63.40
2018-08-02T22:03:09.040Z,63.50
2018-08-02T22:05:39.162Z,63.40
2018-08-02T22:08:09.587Z,63.40
2018-08-02T22:10:38.778Z,63.30
2018-08-02T22:13:12.992Z,63.50
2018-08-02T22:15:46.877Z,63.50
2018-08-02T22:18:16.089Z,63.50
2018-08-02T22:20:44.764Z,63.80
2018-08-02T22:23:13.572Z,64.10
2018-08-02T22:25:42.281Z,64.30
2018-08-02T22:28:11.057Z,64.20
2018-08-02T22:30:39.956Z,64.10
2018-08-02T22:33:08.563Z,64.20
2018-08-02T22:35:37.233Z,64.10
2018-08-02T22:38:05.960Z,64.00
2018-08-02T22:40:35.060Z,64.00
2018-08-02T22:45:31.991Z,64.00
2018-08-02T22:48:01.229Z,64.20
2018-08-02T22:50:29.874Z,64.40
2018-08-02T22:52:58.552Z,64.60
2018-08-02T22:55:27.228Z,65.10
2018-08-02T22:57:56.036Z,64.50
2018-08-02T23:00:24.671Z,64.50
2018-08-02T23:02:53.287Z,64.50
2018-08-02T23:05:21.924Z,64.40
2018-08-02T23:07:51.301Z,64.40
2018-08-02T23:10:20.214Z,64.30
2018-08-02T23:12:49.264Z,64.40
2018-08-02T23:15:17.962Z,64.80
2018-08-02T23:17:46.680Z,65.00
2018-08-02T23:20:15.381Z,65.10
2018-08-02T23:22:49.337Z,64.70
2018-08-02T23:25:18.314Z,64.70
2018-08-02T23:27:47.219Z,64.70
2018-08-02T23:30:15.854Z,64.80
2018-08-02T23:32:44.648Z,64.80
2018-08-02T23:35:13.368Z,65.30
2018-08-02T23:37:42.195Z,65.60
2018-08-02T23:42:40.198Z,65.60
2018-08-02T23:45:08.832Z,65.70
2018-08-02T23:47:37.862Z,65.80
2018-08-02T23:50:07.486Z,65.70
2018-08-02T23:52:36.568Z,65.20
2018-08-02T23:55:06.107Z,65.10
2018-08-02T23:57:34.775Z,65.60
